createdAt,value
2023-08-16T00:02:55.368Z,3.70
2023-08-16T00:08:17.230Z,3.58
2023-08-16T00:13:39.196Z,3.78
2023-08-16T00:19:01.201Z,3.40
2023-08-16T00:24:23.067Z,3.60
2023-08-16T00:29:44.839Z,3.70
2023-08-16T00:35:07.232Z,3.70
2023-08-16T00:40:29.018Z,3.42
2023-08-16T00:45:51.408Z,4.03
2023-08-16T00:51:14.689Z,3.42
2023-08-16T00:56:36.893Z,3.85
2023-08-16T01:01:58.854Z,3.80
2023-08-16T01:07:21.108Z,3.25
2023-08-16T01:13:03.317Z,3.92
2023-08-16T01:18:28.830Z,4.25
2023-08-16T01:24:07.422Z,4.05
2023-08-16T01:29:30.955Z,4.38
2023-08-16T01:34:52.791Z,4.05
2023-08-16T01:40:14.779Z,4.00
2023-08-16T01:45:36.737Z,4.25
2023-08-16T01:50:58.878Z,4.45
2023-08-16T01:56:21.568Z,4.55
2023-08-16T02:01:43.513Z,4.72
2023-08-16T02:07:05.397Z,4.85
2023-08-16T02:12:27.256Z,4.93
2023-08-16T02:17:49.200Z,4.45
2023-08-16T02:23:11.170Z,4.60
2023-08-16T02:28:32.927Z,4.57
2023-08-16T02:33:54.832Z,4.93
2023-08-16T02:39:18.509Z,4.68
2023-08-16T02:44:40.967Z,4.60
2023-08-16T02:50:02.910Z,4.57
2023-08-16T02:55:24.792Z,4.63
2023-08-16T03:00:51.752Z,4.40
2023-08-16T03:06:13.749Z,5.22
2023-08-16T03:11:35.572Z,5.00
2023-08-16T03:17:00.963Z,5.20
2023-08-16T03:22:22.861Z,5.80
2023-08-16T03:27:44.680Z,5.13
2023-08-16T03:33:07.454Z,5.30
2023-08-16T03:38:29.743Z,5.82
2023-08-16T03:43:51.683Z,6.43
2023-08-16T03:49:13.424Z,5.10
2023-08-16T03:54:35.272Z,5.10
2023-08-16T03:59:57.193Z,5.82
2023-08-16T04:05:21.228Z,5.20
2023-08-16T04:10:43.305Z,5.65
2023-08-16T04:16:05.385Z,5.38
2023-08-16T04:21:27.239Z,4.57
2023-08-16T04:26:51.953Z,4.38
2023-08-16T04:32:13.891Z,4.18
2023-08-16T04:37:35.711Z,4.82
2023-08-16T04:42:57.633Z,3.92
2023-08-16T04:48:19.513Z,4.60
2023-08-16T04:53:41.381Z,7.40
2023-08-16T04:59:03.379Z,6.63
2023-08-16T05:04:25.315Z,4.97
2023-08-16T05:09:47.205Z,5.95
2023-08-16T05:15:09.956Z,5.97
2023-08-16T05:20:31.734Z,6.15
2023-08-16T05:25:53.568Z,5.55
2023-08-16T05:31:16.559Z,4.68
2023-08-16T05:36:48.503Z,4.53
2023-08-16T05:42:10.412Z,4.60
2023-08-16T05:47:32.659Z,5.32
2023-08-16T05:52:54.515Z,4.53
2023-08-16T05:58:16.336Z,4.40
2023-08-16T06:03:40.048Z,4.28
2023-08-16T06:09:02.183Z,4.30
2023-08-16T06:14:24.023Z,3.50
2023-08-16T06:19:45.901Z,3.47
2023-08-16T06:25:09.419Z,3.30
2023-08-16T06:30:31.369Z,3.90
2023-08-16T06:35:53.411Z,4.47
2023-08-16T06:41:15.863Z,4.55
2023-08-16T06:46:37.891Z,4.70
2023-08-16T06:51:59.820Z,4.72
2023-08-16T06:57:22.003Z,5.50
2023-08-16T07:02:44.503Z,5.85
2023-08-16T07:08:07.365Z,5.25
2023-08-16T07:13:29.293Z,5.20
2023-08-16T07:18:53.355Z,4.60
2023-08-16T07:24:15.392Z,4.28
2023-08-16T07:29:37.210Z,4.30
2023-08-16T07:34:59.144Z,5.05
2023-08-16T07:40:21.041Z,4.20
2023-08-16T07:45:42.925Z,4.07
2023-08-16T07:51:04.914Z,4.05
2023-08-16T07:56:26.802Z,4.38
2023-08-16T08:01:48.675Z,4.18
2023-08-16T08:07:12.429Z,4.68
2023-08-16T08:12:34.462Z,4.65
2023-08-16T08:17:57.363Z,4.85
2023-08-16T08:23:19.231Z,4.60
2023-08-16T08:28:41.110Z,4.70
2023-08-16T08:34:03.002Z,4.20
2023-08-16T08:39:24.881Z,4.20
2023-08-16T08:44:46.762Z,4.13
2023-08-16T08:50:09.113Z,4.13
2023-08-16T08:55:34.181Z,4.43
2023-08-16T09:00:56.144Z,4.10
2023-08-16T09:06:18.045Z,3.80
2023-08-16T09:11:40.180Z,4.20
2023-08-16T09:17:02.007Z,3.85
2023-08-16T09:22:24.088Z,3.63
2023-08-16T09:27:46.274Z,3.88
2023-08-16T09:33:08.862Z,3.65
2023-08-16T09:44:06.920Z,3.53
2023-08-16T09:49:28.904Z,3.95
2023-08-16T09:54:55.468Z,3.95
2023-08-16T10:00:17.715Z,3.70
2023-08-16T10:11:05.452Z,4.05
2023-08-16T10:16:31.882Z,3.97
2023-08-16T10:21:55.284Z,3.80
2023-08-16T10:27:20.814Z,3.85
2023-08-16T10:32:46.032Z,3.72
2023-08-16T10:38:07.872Z,3.80
2023-08-16T10:43:35.363Z,3.90
2023-08-16T10:49:01.671Z,4.03
2023-08-16T10:54:33.703Z,4.00
2023-08-16T11:00:08.755Z,3.10
2023-08-16T11:05:35.002Z,3.50
2023-08-16T11:10:57.613Z,3.75
2023-08-16T11:16:19.746Z,3.38
2023-08-16T11:21:45.587Z,3.15
2023-08-16T11:27:07.909Z,3.30
2023-08-16T11:32:41.293Z,2.55
2023-08-16T11:38:03.267Z,3.40
2023-08-16T11:43:29.234Z,3.50
2023-08-16T11:48:51.098Z,3.33
2023-08-16T11:54:31.252Z,3.65
2023-08-16T11:59:57.024Z,3.38
2023-08-16T12:05:19.044Z,3.60
2023-08-16T12:10:41.389Z,3.08
2023-08-16T12:16:03.311Z,3.63
2023-08-16T12:21:26.086Z,3.60
2023-08-16T12:26:47.935Z,3.35
2023-08-16T12:32:09.704Z,3.00
2023-08-16T12:37:32.986Z,2.78
2023-08-16T12:43:01.800Z,2.88
2023-08-16T12:48:23.722Z,2.80
2023-08-16T12:53:46.671Z,3.08
2023-08-16T12:59:21.197Z,2.70
2023-08-16T13:10:23.897Z,2.50
2023-08-16T13:15:51.165Z,2.42
2023-08-16T13:37:45.388Z,2.08
2023-08-16T13:48:32.723Z,2.22
2023-08-16T13:53:55.485Z,2.13
2023-08-16T13:59:17.509Z,1.83
2023-08-16T14:04:41.836Z,2.15
2023-08-16T14:10:04.022Z,2.65
2023-08-16T14:15:25.860Z,2.30
2023-08-16T14:20:49.243Z,1.95
2023-08-16T14:26:13.303Z,1.80
2023-08-16T14:31:35.191Z,2.00
2023-08-16T14:36:57.111Z,2.00
2023-08-16T14:42:20.701Z,1.88
2023-08-16T14:47:42.703Z,2.15
2023-08-16T14:53:05.566Z,2.38
2023-08-16T14:58:27.377Z,2.25
2023-08-16T15:03:49.405Z,2.40
2023-08-16T15:09:11.396Z,1.90
2023-08-16T15:14:33.290Z,2.45
2023-08-16T15:19:55.872Z,2.50
2023-08-16T15:25:17.770Z,3.53
2023-08-16T15:30:39.541Z,4.20
2023-08-16T15:36:01.482Z,3.00
2023-08-16T15:41:23.279Z,3.10
2023-08-16T15:46:45.277Z,4.13
2023-08-16T15:52:07.318Z,3.47
2023-08-16T15:57:29.326Z,3.55
2023-08-16T16:02:51.303Z,3.25
2023-08-16T16:08:13.129Z,3.35
2023-08-16T16:13:34.998Z,3.85
2023-08-16T16:18:56.850Z,3.50
2023-08-16T16:24:18.707Z,3.25
2023-08-16T16:29:40.693Z,3.25
2023-08-16T16:35:03.449Z,3.53
2023-08-16T16:40:25.539Z,4.15
2023-08-16T16:45:47.464Z,4.60
2023-08-16T16:51:09.295Z,3.83
2023-08-16T16:56:31.168Z,4.63
2023-08-16T17:01:53.213Z,3.63
2023-08-16T17:07:15.490Z,3.03
2023-08-16T17:12:37.438Z,2.78
2023-08-16T17:17:59.439Z,2.38
2023-08-16T17:23:21.977Z,2.35
2023-08-16T17:28:43.842Z,2.10
2023-08-16T17:34:05.943Z,1.83
2023-08-16T17:39:27.840Z,2.35
2023-08-16T17:44:49.794Z,2.30
2023-08-16T17:50:11.677Z,2.47
2023-08-16T17:55:33.478Z,2.25
2023-08-16T18:00:56.839Z,2.30
2023-08-16T18:06:19.086Z,2.67
2023-08-16T18:11:40.892Z,2.25
2023-08-16T18:17:02.803Z,2.20
2023-08-16T18:22:24.850Z,2.45
2023-08-16T18:27:46.599Z,2.40
2023-08-16T18:33:08.462Z,2.67
2023-08-16T18:38:30.356Z,2.45
2023-08-16T18:43:52.192Z,2.63
2023-08-16T18:49:14.348Z,2.80
2023-08-16T18:54:36.175Z,2.50
2023-08-16T18:59:58.374Z,3.22
2023-08-16T19:05:20.186Z,3.05
2023-08-16T19:10:43.518Z,3.00
2023-08-16T19:16:05.467Z,3.40
2023-08-16T19:21:27.483Z,3.05
2023-08-16T19:26:49.652Z,3.38
2023-08-16T19:32:11.623Z,3.00
2023-08-16T19:37:33.574Z,2.92
2023-08-16T19:42:55.421Z,3.15
2023-08-16T19:48:17.672Z,3.22
2023-08-16T19:53:39.516Z,2.90
2023-08-16T19:59:01.393Z,3.60
2023-08-16T20:04:23.372Z,2.97
2023-08-16T20:09:45.143Z,2.95
2023-08-16T20:15:08.420Z,3.95
2023-08-16T20:20:30.310Z,4.32
2023-08-16T20:25:52.116Z,3.80
2023-08-16T20:31:14.044Z,3.55
2023-08-16T20:36:35.944Z,3.00
2023-08-16T20:41:57.787Z,3.50
2023-08-16T20:47:19.575Z,2.80
2023-08-16T20:52:43.042Z,2.80
2023-08-16T20:58:06.129Z,2.75
2023-08-16T21:03:27.951Z,2.65
2023-08-16T21:08:49.871Z,2.75
2023-08-16T21:14:11.678Z,2.53
2023-08-16T21:19:37.587Z,2.42
2023-08-16T21:24:59.571Z,3.10
2023-08-16T21:30:21.549Z,2.38
2023-08-16T21:35:43.355Z,2.70
2023-08-16T21:41:05.170Z,2.42
2023-08-16T21:46:27.295Z,3.40
2023-08-16T21:51:49.270Z,3.00
2023-08-16T21:57:11.173Z,3.35
2023-08-16T22:02:33.049Z,3.25
2023-08-16T22:07:54.913Z,3.40
2023-08-16T22:13:20.467Z,3.35
2023-08-16T22:18:42.316Z,3.63
2023-08-16T22:24:04.446Z,3.60
2023-08-16T22:29:26.317Z,3.60
2023-08-16T22:34:48.275Z,3.55
2023-08-16T22:40:10.263Z,4.10
2023-08-16T22:45:32.105Z,3.88
2023-08-16T22:50:54.363Z,4.45
2023-08-16T22:56:16.248Z,4.63
2023-08-16T23:01:38.099Z,3.78
2023-08-16T23:06:59.907Z,4.07
2023-08-16T23:12:21.673Z,4.13
2023-08-16T23:17:43.756Z,4.70
2023-08-16T23:23:06.064Z,5.00
2023-08-16T23:28:27.960Z,5.00
2023-08-16T23:33:49.821Z,7.00
2023-08-16T23:39:11.621Z,7.68
2023-08-16T23:44:33.433Z,6.38
2023-08-16T23:49:55.274Z,6.95
2023-08-16T23:55:17.181Z,8.35
